Time;durP1;ratioP1;P1;durP2;ratioP2;P2;SDS_P1;SDS_P2;PMS_P1;PMS_P2;Temp;Humidity;BMP_temperature;BMP_pressure;BME280_temperature;BME280_humidity;BME280_pressure;Samples;Min_cycle;Max_cycle;Signal;HPM_P1;HPM_P2
2022/01/18 00:00:18;;;;;;;19.45;4.40;;;;;;;4.50;100.00;103310.75;2569411;30;138997;-38
2022/01/18 00:02:46;;;;;;;14.57;3.80;;;;;;;4.54;100.00;103315.84;2568574;30;137880;-38
2022/01/18 00:05:15;;;;;;;21.80;4.80;;;;;;;4.59;100.00;103310.09;2570500;30;138370;-38
2022/01/18 00:07:45;;;;;;;17.65;3.63;;;;;;;4.55;100.00;103312.16;2572020;30;138135;-38
2022/01/18 00:10:14;;;;;;;14.93;4.00;;;;;;;4.56;100.00;103313.03;2570858;30;139275;-38
2022/01/18 00:12:55;;;;;;;15.88;4.18;;;;;;;4.54;100.00;103312.28;2571376;30;137115;-38
2022/01/18 00:18:34;;;;;;;17.20;4.20;;;;;;;4.56;100.00;103311.19;2573415;30;137554;-38
2022/01/18 00:23:41;;;;;;;19.43;4.53;;;;;;;4.60;100.00;103311.84;2568978;30;139886;-38
2022/01/18 00:26:10;;;;;;;14.45;4.00;;;;;;;4.58;100.00;103313.78;2569572;30;137493;-38
2022/01/18 00:28:38;;;;;;;19.73;4.20;;;;;;;4.57;100.00;103314.75;2571259;30;137455;-38
2022/01/18 00:39:09;;;;;;;16.23;3.60;;;;;;;4.56;100.00;103326.56;2569989;30;137424;-38
2022/01/18 00:41:39;;;;;;;15.70;3.80;;;;;;;4.56;100.00;103329.25;2568569;30;138000;-38
2022/01/18 00:44:08;;;;;;;17.90;3.95;;;;;;;4.58;100.00;103324.59;2571181;30;136987;-38
2022/01/18 00:46:38;;;;;;;15.45;3.85;;;;;;;4.56;100.00;103331.97;2568617;30;138116;-38
2022/01/18 00:49:06;;;;;;;17.27;3.50;;;;;;;4.55;100.00;103330.25;2571846;30;137727;-38
2022/01/18 00:51:38;;;;;;;15.98;4.05;;;;;;;4.54;100.00;103333.91;2570533;30;138231;-38
2022/01/18 00:54:09;;;;;;;11.73;3.95;;;;;;;4.53;100.00;103335.75;2569585;30;137715;-38
2022/01/18 00:56:43;;;;;;;14.98;3.50;;;;;;;4.52;100.00;103341.28;2580609;30;137584;-40
2022/01/18 00:59:11;;;;;;;13.63;3.22;;;;;;;4.49;100.00;103344.19;2568604;30;136916;-41
2022/01/18 01:01:39;;;;;;;10.93;2.90;;;;;;;4.50;100.00;103345.91;2568572;30;136971;-40
2022/01/18 01:04:07;;;;;;;14.90;3.20;;;;;;;4.47;100.00;103353.25;2569289;30;137442;-41
2022/01/18 01:06:38;;;;;;;13.65;3.03;;;;;;;4.46;100.00;103353.41;2568783;30;137269;-41
2022/01/18 01:09:09;;;;;;;10.55;2.85;;;;;;;4.45;100.00;103355.22;2567947;30;136851;-40
2022/01/18 01:11:40;;;;;;;12.82;2.65;;;;;;;4.44;100.00;103350.78;2568503;30;139028;-40
2022/01/18 01:14:15;;;;;;;9.30;2.17;;;;;;;4.43;100.00;103351.75;2565098;30;137539;-40
2022/01/18 01:36:09;;;;;;;8.90;2.40;;;;;;;4.43;100.00;103354.47;2567208;30;137820;-40
2022/01/18 01:46:41;;;;;;;8.85;1.77;;;;;;;4.39;100.00;103358.38;2569010;30;137361;-40
2022/01/18 01:49:13;;;;;;;9.13;2.20;;;;;;;4.36;100.00;103364.00;2566907;30;137361;-40
2022/01/18 01:51:47;;;;;;;9.07;2.00;;;;;;;4.36;100.00;103364.00;2566748;30;136834;-41
2022/01/18 01:54:15;;;;;;;8.93;1.83;;;;;;;4.35;100.00;103356.84;2568178;30;138618;-40
2022/01/18 01:56:43;;;;;;;8.07;1.70;;;;;;;4.33;100.00;103366.91;2566665;30;136841;-40
2022/01/18 01:59:14;;;;;;;9.27;1.70;;;;;;;4.33;100.00;103375.03;2568009;30;137278;-40
2022/01/18 02:01:49;;;;;;;9.45;2.55;;;;;;;4.31;100.00;103367.00;2567169;30;138757;-40
2022/01/18 02:04:17;;;;;;;11.35;2.40;;;;;;;4.33;100.00;103364.22;2568428;30;138311;-41
2022/01/18 02:06:45;;;;;;;11.60;2.00;;;;;;;4.32;100.00;103367.88;2567903;30;136789;-40
2022/01/18 02:09:14;;;;;;;11.40;1.80;;;;;;;4.32;100.00;103362.47;2567652;30;139223;-41
2022/01/18 02:11:42;;;;;;;7.28;2.22;;;;;;;4.32;100.00;103363.34;2569044;30;137067;-40
2022/01/18 02:14:16;;;;;;;11.20;1.90;;;;;;;4.31;100.00;103366.16;2567890;30;137366;-40
2022/01/18 02:22:17;;;;;;;11.02;1.98;;;;;;;4.38;100.00;103370.16;2567526;30;137104;-40
2022/01/18 02:24:45;;;;;;;11.73;2.70;;;;;;;4.39;100.00;103374.59;2568521;30;138130;-40
2022/01/18 02:27:14;;;;;;;9.70;2.00;;;;;;;4.43;100.00;103365.28;2567769;30;137657;-41
2022/01/18 02:29:45;;;;;;;11.80;2.97;;;;;;;4.44;100.00;103361.59;2566871;30;139409;-41
2022/01/18 02:32:13;;;;;;;11.95;2.65;;;;;;;4.44;100.00;103356.19;2566462;30;138273;-41
2022/01/18 02:34:41;;;;;;;14.32;2.85;;;;;;;4.45;100.00;103347.09;2567439;30;138459;-40
2022/01/18 02:37:11;;;;;;;12.07;2.55;;;;;;;4.49;100.00;103352.28;2565565;30;138410;-40
2022/01/18 02:39:39;;;;;;;14.20;2.30;;;;;;;4.52;100.00;103361.06;2566177;30;139437;-41
2022/01/18 02:42:08;;;;;;;15.40;2.80;;;;;;;4.59;100.00;103350.66;2566376;30;137981;-40
2022/01/18 02:44:36;;;;;;;9.60;2.88;;;;;;;4.56;100.00;103353.59;2568388;30;138058;-41
2022/01/18 02:47:05;;;;;;;13.20;2.58;;;;;;;4.56;100.00;103353.59;2565437;30;137476;-41
2022/01/18 02:49:33;;;;;;;16.98;3.10;;;;;;;4.55;100.00;103357.28;2567904;30;138315;-40
2022/01/18 02:52:02;;;;;;;19.42;3.00;;;;;;;4.54;100.00;103355.56;2567878;30;136717;-40
2022/01/18 02:54:30;;;;;;;11.98;2.75;;;;;;;4.53;100.00;103356.53;2566273;30;138363;-40
2022/01/18 02:57:01;;;;;;;10.48;2.88;;;;;;;4.52;100.00;103352.09;2568195;30;137638;-40
2022/01/18 02:59:44;;;;;;;15.68;2.88;;;;;;;4.53;100.00;103359.22;2567707;30;137987;-40
2022/01/18 03:05:10;;;;;;;13.52;2.47;;;;;;;4.53;100.00;103351.13;2567124;30;138867;-41
2022/01/18 03:07:38;;;;;;;13.82;2.28;;;;;;;4.53;100.00;103351.97;2566040;30;137523;-41
2022/01/18 03:10:09;;;;;;;17.75;3.80;;;;;;;4.53;100.00;103351.13;2565751;30;139080;-40
2022/01/18 03:12:37;;;;;;;14.00;2.47;;;;;;;4.51;100.00;103356.63;2566868;30;138514;-40
2022/01/18 03:15:06;;;;;;;14.13;2.42;;;;;;;4.52;100.00;103361.06;2568196;30;138241;-40
2022/01/18 03:17:34;;;;;;;11.70;2.85;;;;;;;4.51;100.00;103355.75;2568107;30;137421;-40
2022/01/18 03:20:05;;;;;;;15.98;3.08;;;;;;;4.48;100.00;103356.84;2569235;30;138293;-40
2022/01/18 03:22:33;;;;;;;15.25;2.60;;;;;;;4.49;100.00;103363.97;2568412;30;136894;-40
2022/01/18 03:25:14;;;;;;;10.82;2.17;;;;;;;4.48;100.00;103362.25;2568294;30;138842;-40
2022/01/18 03:30:28;;;;;;;11.10;2.45;;;;;;;4.49;100.00;103368.50;2568459;30;137383;-40
2022/01/18 03:32:56;;;;;;;15.98;2.70;;;;;;;4.47;100.00;103372.19;2568584;30;137518;-40
2022/01/18 03:35:23;;;;;;;;;;;;;;;4.47;100.00;103372.19;2566500;30;139560;-40
2022/01/18 03:37:52;;;;;;;13.07;2.20;;;;;;;4.47;100.00;103365.94;2569164;30;136783;-40
2022/01/18 03:40:20;;;;;;;10.88;2.10;;;;;;;4.46;100.00;103361.50;2568840;30;139080;-40
2022/01/18 03:42:49;;;;;;;;;;;;;;;4.47;100.00;103368.63;2568781;30;138059;-41
2022/01/18 03:45:20;;;;;;;8.57;2.05;;;;;;;4.47;100.00;103366.78;2568392;30;138163;-40
2022/01/18 03:47:48;;;;;;;11.48;2.10;;;;;;;4.49;100.00;103368.50;2568099;30;137029;-40
2022/01/18 03:50:16;;;;;;;14.93;2.92;;;;;;;4.50;100.00;103372.94;2568804;30;137418;-41
2022/01/18 03:52:45;;;;;;;12.25;2.50;;;;;;;4.49;100.00;103365.81;2565965;30;137658;-40
2022/01/18 03:55:18;;;;;;;13.63;2.97;;;;;;;4.49;100.00;103366.69;2566606;30;138188;-40
2022/01/18 03:57:47;;;;;;;12.90;2.20;;;;;;;4.50;100.00;103364.81;2569084;30;136755;-40
2022/01/18 04:00:18;;;;;;;17.75;2.92;;;;;;;4.55;100.00;103368.09;2568147;30;138275;-40
2022/01/18 04:02:47;;;;;;;11.20;2.33;;;;;;;4.59;100.00;103366.91;2565647;30;138499;-40
2022/01/18 04:05:16;;;;;;;12.70;3.22;;;;;;;4.66;100.00;103375.44;2568023;30;139057;-40
2022/01/18 04:07:44;;;;;;;12.50;3.13;;;;;;;4.62;100.00;103377.50;2568710;30;137137;-40
2022/01/18 04:10:13;;;;;;;11.25;2.50;;;;;;;4.64;100.00;103375.53;2568424;30;138382;-40
2022/01/18 04:12:42;;;;;;;20.00;2.85;;;;;;;4.62;100.00;103372.06;2568676;30;137593;-40
2022/01/18 04:15:13;;;;;;;14.68;2.75;;;;;;;4.58;100.00;103378.69;2568641;30;138135;-40
2022/01/18 04:28:40;;;;;;;14.88;2.78;;;;;;;4.43;100.00;103377.94;2567256;30;137788;-40
2022/01/18 04:31:09;;;;;;;16.55;3.13;;;;;;;4.38;100.00;103383.66;2567229;30;137308;-40
2022/01/18 04:33:39;;;;;;;18.00;3.22;;;;;;;4.42;100.00;103378.91;2567126;30;138201;-40
2022/01/18 04:36:08;;;;;;;15.35;3.67;;;;;;;4.36;100.00;103372.09;2567805;30;138424;-40
2022/01/18 04:38:37;;;;;;;10.77;3.38;;;;;;;4.31;100.00;103369.72;2568884;30;137848;-41
2022/01/18 04:41:18;;;;;;;16.65;3.33;;;;;;;4.29;100.00;103368.97;2568354;30;138359;-41
2022/01/18 04:49:05;;;;;;;14.98;3.35;;;;;;;4.15;100.00;103366.38;2566039;30;137457;-40
2022/01/18 04:51:34;;;;;;;15.85;3.47;;;;;;;4.11;100.00;103368.41;2565353;30;138734;-40
2022/01/18 04:54:06;;;;;;;15.93;3.58;;;;;;;4.09;100.00;103373.06;2568204;30;137712;-40
2022/01/18 04:59:03;;;;;;;;;;;;;;;4.05;100.00;103381.47;2567511;30;137712;-40
2022/01/18 05:01:31;;;;;;;17.80;3.83;;;;;;;4.02;100.00;103374.47;2567799;30;137291;-40
2022/01/18 05:03:59;;;;;;;11.32;3.50;;;;;;;3.99;100.00;103378.25;2568659;30;137552;-40
2022/01/18 05:06:27;;;;;;;10.65;3.25;;;;;;;3.96;100.00;103381.16;2567747;30;139147;-40
2022/01/18 05:08:56;;;;;;;;;;;;;;;3.93;100.00;103377.78;2567982;30;137593;-41
2022/01/18 05:11:27;;;;;;;13.48;3.63;;;;;;;3.93;100.00;103383.19;2568143;30;138037;-40
2022/01/18 05:14:31;;;;;;;15.93;3.92;;;;;;;3.89;100.00;103386.13;2569032;30;138438;-40
2022/01/18 05:16:59;;;;;;;9.60;2.97;;;;;;;3.87;100.00;103390.75;2567769;30;138478;-40
2022/01/18 05:19:42;;;;;;;15.50;3.25;;;;;;;3.92;100.00;103389.56;2568709;30;137360;-40
2022/01/18 05:24:57;;;;;;;15.52;4.35;;;;;;;3.95;100.00;103394.75;2568569;30;138363;-40
2022/01/18 05:27:25;;;;;;;17.13;4.70;;;;;;;3.96;100.00;103401.88;2568729;30;138654;-40
2022/01/18 05:29:53;;;;;;;16.08;4.63;;;;;;;3.98;100.00;103400.81;2567787;30;138148;-40
2022/01/18 05:32:21;;;;;;;15.90;5.07;;;;;;;3.98;100.00;103397.28;2568084;30;139359;-40
2022/01/18 05:34:49;;;;;;;;;;;;;;;4.03;100.00;103395.13;2568538;30;138359;-40
2022/01/18 05:37:17;;;;;;;22.60;5.90;;;;;;;4.05;100.00;103395.00;2567648;30;138513;-40
2022/01/18 05:39:45;;;;;;;22.38;5.20;;;;;;;4.05;100.00;103400.41;2568565;30;138420;-40
2022/01/18 05:42:13;;;;;;;15.63;4.68;;;;;;;4.05;100.00;103405.81;2566918;30;138928;-40
2022/01/18 05:44:41;;;;;;;;;;;;;;;4.03;100.00;103409.47;2568451;30;138098;-40
2022/01/18 05:47:09;;;;;;;12.73;5.22;;;;;;;4.01;100.00;103402.47;2564929;30;139076;-41
2022/01/18 05:49:36;;;;;;;;;;;;;;;4.03;100.00;103397.81;2569041;30;138628;-41
2022/01/18 05:52:05;;;;;;;12.65;5.00;;;;;;;4.04;100.00;103402.25;2569350;30;137168;-40
2022/01/18 05:54:33;;;;;;;14.90;5.13;;;;;;;4.02;100.00;103402.34;2568406;30;137182;-41
2022/01/18 05:57:01;;;;;;;;;;;;;;;4.00;100.00;103404.28;2568404;30;138424;-40
2022/01/18 05:59:35;;;;;;;12.82;4.43;;;;;;;4.00;100.00;103404.28;2566734;30;137282;-40
2022/01/18 06:02:15;;;;;;;13.70;5.30;;;;;;;3.98;100.00;103402.69;2568160;30;138190;-40
2022/01/18 06:07:31;;;;;;;21.52;5.78;;;;;;;3.94;100.00;103407.41;2568144;30;138333;-41
2022/01/18 06:10:00;;;;;;;15.20;5.38;;;;;;;3.93;100.00;103405.69;2565138;30;138883;-40
2022/01/18 06:12:29;;;;;;;19.20;5.50;;;;;;;3.92;100.00;103411.19;2568983;30;137283;-40
2022/01/18 06:14:57;;;;;;;17.50;5.47;;;;;;;3.88;100.00;103411.41;2567979;30;137080;-41
2022/01/18 06:17:25;;;;;;;;;;;;;;;3.85;100.00;103410.75;2567321;30;138667;-40
2022/01/18 06:19:53;;;;;;;18.02;5.25;;;;;;;3.86;100.00;103412.47;2566701;30;137135;-41
2022/01/18 06:22:21;;;;;;;16.75;6.13;;;;;;;3.85;100.00;103414.31;2568270;30;138179;-40
2022/01/18 06:24:48;;;;;;;;;;;;;;;3.84;100.00;103411.69;2567855;30;138279;-40
2022/01/18 06:27:16;;;;;;;18.05;5.55;;;;;;;3.87;100.00;103412.38;2567622;30;138469;-40
2022/01/18 06:29:44;;;;;;;;;;;;;;;3.86;100.00;103407.94;2568639;30;138285;-40
2022/01/18 06:32:13;;;;;;;18.23;5.20;;;;;;;3.85;100.00;103406.19;2566324;30;138479;-40
2022/01/18 06:34:41;;;;;;;13.25;5.88;;;;;;;3.83;100.00;103405.44;2568078;30;137453;-40
2022/01/18 06:37:10;;;;;;;15.25;4.88;;;;;;;3.82;100.00;103409.13;2568278;30;137168;-40
2022/01/18 06:39:38;;;;;;;15.70;5.68;;;;;;;3.83;100.00;103413.53;2565501;30;137936;-40
2022/01/18 06:42:12;;;;;;;18.55;5.25;;;;;;;3.85;100.00;103414.31;2564753;30;137475;-40
2022/01/18 06:44:41;;;;;;;13.88;5.20;;;;;;;3.83;100.00;103416.25;2566745;30;138390;-40
2022/01/18 06:47:09;;;;;;;18.70;5.90;;;;;;;3.79;100.00;103420.13;2568880;30;138353;-40
2022/01/18 06:49:37;;;;;;;;;;;;;;;3.77;100.00;103416.66;2568106;30;136700;-41
2022/01/18 06:52:05;;;;;;;14.43;5.38;;;;;;;3.77;100.00;103416.66;2567924;30;137237;-40
2022/01/18 06:54:33;;;;;;;17.17;5.85;;;;;;;3.78;100.00;103418.41;2566451;30;138526;-40
2022/01/18 06:57:01;;;;;;;;;;;;;;;3.78;100.00;103429.19;2582755;30;137963;-39
2022/01/18 06:59:29;;;;;;;24.00;6.25;;;;;;;3.79;100.00;103430.94;2570095;30;137089;-39
2022/01/18 07:01:57;;;;;;;;;;;;;;;3.77;100.00;103432.88;2567470;30;137259;-38
2022/01/18 07:04:25;;;;;;;13.80;5.80;;;;;;;3.78;100.00;103431.91;2570469;30;137128;-38
2022/01/18 07:06:52;;;;;;;;;;;;;;;3.78;100.00;103433.72;2567067;30;138665;-38
2022/01/18 07:09:23;;;;;;;15.48;6.55;;;;;;;3.75;100.00;103426.72;2569397;30;136794;-38
2022/01/18 07:11:56;;;;;;;15.77;6.25;;;;;;;3.74;100.00;103435.78;2570267;30;138565;-38
2022/01/18 07:14:24;;;;;;;16.55;5.97;;;;;;;3.73;100.00;103439.47;2568268;30;138227;-38
2022/01/18 07:16:53;;;;;;;16.52;5.38;;;;;;;3.74;100.00;103430.38;2568236;30;137409;-38
2022/01/18 07:19:21;;;;;;;15.18;5.85;;;;;;;3.78;100.00;103428.31;2569579;30;137719;-38
2022/01/18 07:21:48;;;;;;;;;;;;;;;3.82;100.00;103433.44;2570171;30;137262;-38
2022/01/18 07:24:18;;;;;;;18.83;6.43;;;;;;;3.79;100.00;103430.06;2566548;30;137132;-40
2022/01/18 07:26:47;;;;;;;16.88;5.35;;;;;;;3.78;100.00;103431.91;2568375;30;139348;-38
2022/01/18 07:29:14;;;;;;;;;;;;;;;3.76;100.00;103436.53;2567072;30;137186;-38
2022/01/18 07:31:42;;;;;;;14.45;5.22;;;;;;;3.73;100.00;103439.47;2567382;30;138231;-38
2022/01/18 07:34:14;;;;;;;13.77;5.88;;;;;;;3.72;100.00;103432.31;2566559;30;136649;-38
2022/01/18 07:36:42;;;;;;;15.45;6.13;;;;;;;3.73;100.00;103434.06;2565769;30;138604;-38
2022/01/18 07:39:10;;;;;;;;;;;;;;;3.74;100.00;103438.47;2570138;30;137653;-38
2022/01/18 07:41:38;;;;;;;13.18;5.38;;;;;;;3.74;100.00;103443.88;2570724;30;137664;-38
2022/01/18 07:44:06;;;;;;;12.88;5.60;;;;;;;3.73;100.00;103444.84;2566180;30;137513;-38
2022/01/18 07:46:34;;;;;;;18.20;6.28;;;;;;;3.72;100.00;103454.78;2566919;30;137669;-38
2022/01/18 07:49:02;;;;;;;;;;;;;;;3.71;100.00;103450.34;2565707;30;138364;-38
2022/01/18 07:51:30;;;;;;;12.57;5.45;;;;;;;3.73;100.00;103447.56;2567993;30;138356;-38
2022/01/18 07:53:58;;;;;;;;;;;;;;;3.75;100.00;103451.03;2569098;30;136982;-38
2022/01/18 07:56:26;;;;;;;17.70;6.10;;;;;;;3.75;100.00;103448.31;2567960;30;138348;-38
2022/01/18 07:58:54;;;;;;;12.38;5.47;;;;;;;3.79;100.00;103454.34;2568951;30;136855;-38
2022/01/18 08:01:22;;;;;;;18.48;6.05;;;;;;;3.81;100.00;103458.69;2568891;30;138476;-38
2022/01/18 08:03:50;;;;;;;17.45;6.65;;;;;;;3.85;100.00;103460.22;2568899;30;136743;-38
2022/01/18 08:06:18;;;;;;;;;;;;;;;3.87;100.00;103463.69;2570045;30;138200;-38
2022/01/18 08:08:46;;;;;;;19.25;5.85;;;;;;;3.89;100.00;103459.03;2570368;30;137612;-38
2022/01/18 08:11:13;;;;;;;;;;;;;;;3.95;100.00;103457.78;2567743;30;137841;-38
2022/01/18 08:13:47;;;;;;;16.17;6.93;;;;;;;4.01;100.00;103467.31;2569366;30;136999;-38
2022/01/18 08:18:52;;;;;;;19.48;7.40;;;;;;;4.06;100.00;103467.84;2568289;30;138109;-38
2022/01/18 08:21:20;;;;;;;14.57;6.90;;;;;;;4.07;100.00;103466.88;2569409;30;138431;-38
2022/01/18 08:23:49;;;;;;;19.38;7.40;;;;;;;4.09;100.00;103474.88;2569953;30;137684;-38
2022/01/18 08:26:17;;;;;;;13.90;6.45;;;;;;;4.10;100.00;103466.66;2569485;30;138449;-38
2022/01/18 08:28:45;;;;;;;18.98;7.45;;;;;;;4.15;100.00;103469.91;2570280;30;137657;-38
2022/01/18 08:31:14;;;;;;;18.42;6.95;;;;;;;4.20;100.00;103475.00;2570127;30;139346;-38
2022/01/18 08:33:42;;;;;;;17.80;6.93;;;;;;;4.25;100.00;103467.44;2571087;30;138160;-38
2022/01/18 08:36:10;;;;;;;;;;;;;;;4.29;100.00;103468.13;2567971;30;138896;-38
2022/01/18 08:38:39;;;;;;;20.00;7.00;;;;;;;4.31;100.00;103471.56;2570173;30;137250;-38
2022/01/18 08:41:08;;;;;;;16.27;7.10;;;;;;;4.33;100.00;103466.94;2569505;30;138608;-38
2022/01/18 08:43:37;;;;;;;17.85;7.93;;;;;;;4.38;100.00;103467.47;2570278;30;137841;-38
2022/01/18 08:46:05;;;;;;;15.88;7.75;;;;;;;4.43;100.00;103468.00;2570293;30;137035;-38
2022/01/18 08:48:35;;;;;;;;;;;;;;;4.47;100.00;103472.22;2569502;30;137023;-38
2022/01/18 08:51:03;;;;;;;17.17;7.18;;;;;;;4.52;100.00;103465.66;2569455;30;137942;-39
2022/01/18 08:53:31;;;;;;;19.65;7.95;;;;;;;4.58;100.00;103471.47;2571530;30;137810;-38
2022/01/18 08:55:59;;;;;;;;;;;;;;;4.63;100.00;103472.97;2569814;30;138312;-38
2022/01/18 08:58:27;;;;;;;23.25;8.13;;;;;;;4.71;100.00;103468.78;2569771;30;137004;-38
2022/01/18 09:00:55;;;;;;;;;;;;;;;4.75;100.00;103475.69;2570141;30;137861;-38
2022/01/18 09:03:23;;;;;;;22.35;8.90;;;;;;;4.81;100.00;103478.97;2568458;30;137358;-38
2022/01/18 09:05:51;;;;;;;20.35;8.43;;;;;;;4.88;100.00;103472.13;2569609;30;139000;-38
2022/01/18 09:08:20;;;;;;;28.13;10.20;;;;;;;4.94;100.00;103466.28;2569789;30;136817;-38
2022/01/18 09:10:49;;;;;;;21.55;8.48;;;;;;;4.95;100.00;103467.16;2567813;30;137146;-38
2022/01/18 09:13:17;;;;;;;23.30;9.25;;;;;;;4.99;100.00;103468.66;2567897;30;137514;-38
2022/01/18 09:15:45;;;;;;;15.98;7.63;;;;;;;5.07;100.00;103470.81;2570849;30;137905;-38
2022/01/18 09:18:13;;;;;;;26.33;8.52;;;;;;;5.14;100.00;103482.91;2569319;30;138259;-38
2022/01/18 09:20:41;;;;;;;;;;;;;;;5.17;100.00;103488.09;2570987;30;138421;-38
2022/01/18 09:23:09;;;;;;;22.42;7.85;;;;;;;5.20;100.00;103487.88;2569301;30;136850;-38
2022/01/18 09:25:37;;;;;;;20.92;7.28;;;;;;;5.25;100.00;103485.69;2568433;30;138053;-38
2022/01/18 09:28:05;;;;;;;;;;;;;;;5.35;100.00;103490.47;2570631;30;137619;-38
2022/01/18 09:30:35;;;;;;;20.70;7.47;;;;;;;5.40;100.00;103496.38;2568805;30;138459;-38
2022/01/18 09:33:06;;;;;;;20.48;7.78;;;;;;;5.47;100.00;103492.25;2568831;30;137509;-38
2022/01/18 09:35:36;;;;;;;18.77;9.27;;;;;;;5.54;100.00;103490.81;2566976;30;138468;-38
2022/01/18 09:38:05;;;;;;;19.67;7.45;;;;;;;5.64;100.00;103492.84;2569714;30;137625;-38
2022/01/18 09:40:38;;;;;;;21.65;8.23;;;;;;;5.68;100.00;103497.91;2568962;30;139052;-38
2022/01/18 09:43:12;;;;;;;15.27;7.45;;;;;;;5.74;100.00;103493.88;2568533;30;137597;-38
2022/01/18 09:45:42;;;;;;;24.35;8.73;;;;;;;5.81;100.00;103497.00;2569043;30;138213;-39
2022/01/18 09:48:13;;;;;;;19.48;7.30;;;;;;;5.85;100.00;103501.22;2568769;30;138233;-38
2022/01/18 09:50:44;;;;;;;19.30;7.63;;;;;;;5.94;100.00;103497.78;2568602;30;139414;-38
2022/01/18 09:53:12;;;;;;;19.83;7.00;;;;;;;6.00;100.00;103496.47;2569934;30;136887;-38
2022/01/18 09:55:42;;;;;;;18.15;7.15;;;;;;;6.00;100.00;103502.78;2570497;30;139140;-38
2022/01/18 09:58:11;;;;;;;18.30;7.00;;;;;;;5.99;100.00;103502.88;2570216;30;137593;-38
2022/01/18 10:00:42;;;;;;;18.50;6.90;;;;;;;6.07;100.00;103505.88;2566345;30;139425;-38
2022/01/18 10:03:29;;;;;;;27.90;7.63;;;;;;;6.11;100.00;103504.69;2571363;30;137679;-38
2022/01/18 10:05:57;;;;;;;17.90;6.85;;;;;;;6.17;100.00;103506.94;2572463;30;137326;-38
2022/01/18 10:08:26;;;;;;;24.55;6.78;;;;;;;6.21;100.00;103514.84;2566898;30;138690;-38
2022/01/18 10:10:57;;;;;;;19.98;6.97;;;;;;;6.23;100.00;103515.56;2570829;30;139224;-41
2022/01/18 10:13:32;;;;;;;18.77;6.88;;;;;;;6.27;100.00;103507.09;2568347;30;137424;-38
2022/01/18 10:16:15;;;;;;;17.80;6.38;;;;;;;6.31;100.00;103505.00;2568984;30;138455;-38
2022/01/18 10:18:51;;;;;;;22.13;7.47;;;;;;;6.36;100.00;103508.22;2569312;30;137499;-38
2022/01/18 10:21:45;;;;;;;15.35;5.70;;;;;;;6.39;100.00;103501.69;2565727;30;137772;-38
2022/01/18 10:24:16;;;;;;;19.85;6.60;;;;;;;6.43;100.00;103498.63;2568460;30;137576;-38
2022/01/18 10:26:47;;;;;;;17.67;6.65;;;;;;;6.45;100.00;103495.78;2568553;30;137401;-38
2022/01/18 10:29:17;;;;;;;21.92;7.03;;;;;;;6.57;100.00;103504.81;2569895;30;137659;-38
2022/01/18 10:37:20;;;;;;;19.88;7.28;;;;;;;6.81;100.00;103502.03;2569142;30;138431;-38
2022/01/18 10:39:52;;;;;;;18.15;7.00;;;;;;;6.85;100.00;103499.91;2569581;30;137018;-38
2022/01/18 10:42:20;;;;;;;18.17;7.28;;;;;;;6.85;100.00;103489.94;2571074;30;139042;-38
2022/01/18 10:45:11;;;;;;;17.33;6.35;;;;;;;6.87;100.00;103487.09;2568220;30;137655;-38
2022/01/18 10:47:50;;;;;;;23.02;7.20;;;;;;;6.93;100.00;103489.34;2569077;30;137904;-38
2022/01/18 10:50:19;;;;;;;19.73;6.95;;;;;;;6.98;100.00;103483.53;2570618;30;138278;-38
2022/01/18 10:52:52;;;;;;;23.60;8.43;;;;;;;7.00;100.00;103487.84;2568422;30;138537;-38
2022/01/18 10:55:23;;;;;;;21.38;7.97;;;;;;;7.09;100.00;103488.97;2568972;30;138110;-38
2022/01/18 10:57:52;;;;;;;25.02;10.48;;;;;;;7.16;100.00;103489.31;2568570;30;138506;-38
2022/01/18 11:00:28;;;;;;;22.85;9.20;;;;;;;7.21;100.00;103481.69;2570453;30;138546;-38
2022/01/18 11:02:56;;;;;;;27.67;10.60;;;;;;;7.22;100.00;103488.84;2568035;30;138456;-38
2022/01/18 11:05:32;;;;;;;20.70;9.20;;;;;;;7.27;100.00;103475.75;2567701;30;138450;-38
2022/01/18 11:08:05;;;;;;;22.60;9.38;;;;;;;7.34;100.00;103482.38;2569265;30;138684;-38
2022/01/18 11:10:35;;;;;;;20.88;8.52;;;;;;;7.37;100.00;103474.97;2571338;30;137436;-38
2022/01/18 11:13:24;;;;;;;26.65;9.52;;;;;;;7.43;100.00;103466.34;2569695;30;138366;-38
2022/01/18 11:16:03;;;;;;;22.02;9.63;;;;;;;7.40;100.00;103474.72;2566161;30;137270;-38
2022/01/18 11:18:36;;;;;;;23.73;9.68;;;;;;;7.43;100.00;103477.22;2570159;30;137880;-38
2022/01/18 11:21:07;;;;;;;25.42;9.07;;;;;;;7.41;100.00;103465.56;2567520;30;137226;-38
2022/01/18 11:23:36;;;;;;;30.65;11.68;;;;;;;7.45;100.00;103467.06;2569299;30;139268;-38
2022/01/18 11:26:04;;;;;;;27.60;11.85;;;;;;;7.31;100.00;103460.06;2567522;30;137692;-38
2022/01/18 11:28:34;;;;;;;;;;;;;;;7.34;100.00;103465.25;2569363;30;138159;-38
2022/01/18 11:31:02;;;;;;;25.52;11.27;;;;;;;7.43;100.00;103463.63;2569156;30;137189;-38
2022/01/18 11:33:35;;;;;;;26.88;11.38;;;;;;;7.46;100.00;103460.66;2567500;30;138219;-38
2022/01/18 11:36:08;;;;;;;25.85;11.45;;;;;;;7.47;100.00;103465.94;2570024;30;137552;-38
2022/01/18 11:38:36;;;;;;;27.45;11.68;;;;;;;7.52;100.00;103459.25;2569337;30;137363;-39
2022/01/18 11:41:19;;;;;;;29.08;11.75;;;;;;;7.48;100.00;103473.09;2571306;30;137141;-38
2022/01/18 11:43:48;;;;;;;41.58;17.38;;;;;;;7.33;100.00;103455.38;2570929;30;138384;-38
2022/01/18 11:46:32;;;;;;;42.33;17.95;;;;;;;7.37;100.00;103464.09;2567976;30;136931;-38
2022/01/18 11:49:19;;;;;;;37.22;16.35;;;;;;;7.36;100.00;103456.94;2569660;30;139043;-38
2022/01/18 11:52:16;;;;;;;37.42;17.75;;;;;;;7.39;100.00;103457.56;2567207;30;138848;-38
2022/01/18 11:57:26;;;;;;;30.35;15.27;;;;;;;7.45;100.00;103451.63;2570306;30;137823;-38
2022/01/18 12:00:06;;;;;;;29.83;14.40;;;;;;;7.45;100.00;103448.06;2567087;30;138243;-38
2022/01/18 12:02:44;;;;;;;29.45;13.85;;;;;;;7.42;100.00;103445.56;2569386;30;136698;-38
2022/01/18 12:05:21;;;;;;;27.60;12.57;;;;;;;7.43;100.00;103441.91;2571154;30;137373;-38
2022/01/18 12:07:53;;;;;;;24.83;12.35;;;;;;;7.49;100.00;103447.66;2567304;30;137601;-38
2022/01/18 12:10:34;;;;;;;29.20;12.32;;;;;;;7.46;100.00;103439.75;2568657;30;138091;-38
2022/01/18 12:13:11;;;;;;;22.83;12.50;;;;;;;7.41;100.00;103441.13;2569565;30;136959;-38
2022/01/18 12:15:46;;;;;;;23.10;11.25;;;;;;;7.40;100.00;103436.69;2570396;30;138346;-38
2022/01/18 12:18:16;;;;;;;28.30;11.93;;;;;;;7.50;100.00;103443.09;2569467;30;137458;-39
2022/01/18 12:20:46;;;;;;;27.23;12.70;;;;;;;7.54;100.00;103449.13;2570185;30;139186;-38
2022/01/18 12:23:17;;;;;;;24.10;12.13;;;;;;;7.57;100.00;103432.59;2567229;30;137647;-38
2022/01/18 12:26:39;;;;;;;27.45;12.02;;;;;;;7.59;99.79;103436.03;2570414;30;137723;-38
2022/01/18 12:31:54;;;;;;;31.00;14.27;;;;;;;7.59;99.85;103431.44;2567847;30;138533;-38
2022/01/18 12:34:46;;;;;;;29.08;12.95;;;;;;;7.52;99.06;103434.81;2572890;30;137687;-38
2022/01/18 12:37:16;;;;;;;30.40;12.65;;;;;;;7.47;99.67;103429.78;2570118;30;138512;-38
2022/01/18 12:39:54;;;;;;;26.67;12.77;;;;;;;7.36;99.05;103429.78;2571135;30;137735;-38
2022/01/18 12:45:33;;;;;;;33.28;15.13;;;;;;;7.15;99.42;103423.28;2570667;30;137518;-38
2022/01/18 12:48:05;;;;;;;31.60;13.57;;;;;;;7.21;100.00;103421.94;2569102;30;138306;-38
2022/01/18 12:50:37;;;;;;;27.52;13.77;;;;;;;7.19;100.00;103413.06;2568645;30;138444;-38
2022/01/18 12:53:11;;;;;;;33.60;14.10;;;;;;;7.22;100.00;103409.22;2569731;30;139261;-38
2022/01/18 12:55:54;;;;;;;28.15;14.27;;;;;;;7.18;100.00;103404.03;2569712;30;138399;-38
2022/01/18 12:59:22;;;;;;;;;;;;;;;7.11;100.00;103404.66;2566736;30;137737;-40
2022/01/18 13:01:53;;;;;;;27.75;11.23;;;;;;;7.05;100.00;103396.03;2565741;30;137327;-40
2022/01/18 13:04:22;;;;;;;25.05;11.30;;;;;;;7.04;100.00;103397.03;2567434;30;138245;-40
2022/01/18 13:06:51;;;;;;;24.30;10.57;;;;;;;7.08;100.00;103391.34;2568213;30;138588;-41